sensor_id;sensor_type;location;lat;lon;timestamp;P1;durP1;ratioP1;P2;durP2;ratioP2
71878;SDS011;59755;43.834;4.364;2022-11-15T00:01:11;14.15;;;10.00;;
71878;SDS011;59755;43.834;4.364;2022-11-15T00:03:41;12.80;;;9.07;;
71878;SDS011;59755;43.834;4.364;2022-11-15T00:06:08;13.20;;;9.23;;
71878;SDS011;59755;43.834;4.364;2022-11-15T00:08:33;13.00;;;9.38;;
71878;SDS011;59755;43.834;4.364;2022-11-15T00:11:00;12.63;;;8.75;;
71878;SDS011;59755;43.834;4.364;2022-11-15T00:13:26;11.98;;;8.80;;
71878;SDS011;59755;43.834;4.364;2022-11-15T00:15:54;16.95;;;9.55;;
71878;SDS011;59755;43.834;4.364;2022-11-15T00:18:22;12.27;;;8.70;;
71878;SDS011;59755;43.834;4.364;2022-11-15T00:20:47;13.50;;;9.05;;
71878;SDS011;59755;43.834;4.364;2022-11-15T00:23:13;13.52;;;9.00;;
71878;SDS011;59755;43.834;4.364;2022-11-15T00:25:39;13.18;;;9.15;;
71878;SDS011;59755;43.834;4.364;2022-11-15T00:28:05;12.27;;;8.88;;
71878;SDS011;59755;43.834;4.364;2022-11-15T00:30:31;11.98;;;8.90;;
71878;SDS011;59755;43.834;4.364;2022-11-15T00:32:56;11.95;;;8.57;;
71878;SDS011;59755;43.834;4.364;2022-11-15T00:35:33;12.13;;;8.43;;
71878;SDS011;59755;43.834;4.364;2022-11-15T00:37:59;12.55;;;8.48;;
71878;SDS011;59755;43.834;4.364;2022-11-15T00:40:26;10.93;;;7.90;;
71878;SDS011;59755;43.834;4.364;2022-11-15T00:42:52;11.52;;;8.55;;
71878;SDS011;59755;43.834;4.364;2022-11-15T00:45:18;11.85;;;8.43;;
71878;SDS011;59755;43.834;4.364;2022-11-15T00:47:44;10.70;;;7.55;;
71878;SDS011;59755;43.834;4.364;2022-11-15T00:50:11;10.95;;;7.32;;
71878;SDS011;59755;43.834;4.364;2022-11-15T00:52:37;11.75;;;7.35;;
71878;SDS011;59755;43.834;4.364;2022-11-15T00:55:03;10.80;;;7.68;;
71878;SDS011;59755;43.834;4.364;2022-11-15T00:57:29;11.60;;;7.25;;
71878;SDS011;59755;43.834;4.364;2022-11-15T00:59:54;11.00;;;7.32;;
71878;SDS011;59755;43.834;4.364;2022-11-15T01:02:20;11.65;;;8.02;;
71878;SDS011;59755;43.834;4.364;2022-11-15T01:04:46;12.10;;;7.78;;
71878;SDS011;59755;43.834;4.364;2022-11-15T01:07:12;12.05;;;8.13;;
71878;SDS011;59755;43.834;4.364;2022-11-15T01:09:38;12.57;;;8.20;;
71878;SDS011;59755;43.834;4.364;2022-11-15T01:12:04;12.48;;;8.05;;
71878;SDS011;59755;43.834;4.364;2022-11-15T01:14:30;11.10;;;7.30;;
71878;SDS011;59755;43.834;4.364;2022-11-15T01:16:55;12.02;;;7.95;;
71878;SDS011;59755;43.834;4.364;2022-11-15T01:19:21;11.98;;;8.35;;
71878;SDS011;59755;43.834;4.364;2022-11-15T01:21:50;11.23;;;8.15;;
71878;SDS011;59755;43.834;4.364;2022-11-15T01:24:16;11.85;;;7.93;;
71878;SDS011;59755;43.834;4.364;2022-11-15T01:26:42;12.43;;;8.50;;
71878;SDS011;59755;43.834;4.364;2022-11-15T01:29:07;10.73;;;8.02;;
71878;SDS011;59755;43.834;4.364;2022-11-15T01:31:33;11.95;;;8.13;;
71878;SDS011;59755;43.834;4.364;2022-11-15T01:33:59;11.43;;;7.95;;
71878;SDS011;59755;43.834;4.364;2022-11-15T01:36:24;13.77;;;8.02;;
71878;SDS011;59755;43.834;4.364;2022-11-15T01:38:54;9.70;;;7.22;;
71878;SDS011;59755;43.834;4.364;2022-11-15T01:41:22;11.02;;;6.80;;
71878;SDS011;59755;43.834;4.364;2022-11-15T01:43:51;10.77;;;6.88;;
71878;SDS011;59755;43.834;4.364;2022-11-15T01:48:56;11.40;;;7.43;;
71878;SDS011;59755;43.834;4.364;2022-11-15T01:51:26;11.13;;;7.60;;
71878;SDS011;59755;43.834;4.364;2022-11-15T01:53:58;10.87;;;8.10;;
71878;SDS011;59755;43.834;4.364;2022-11-15T01:56:30;10.50;;;7.15;;
71878;SDS011;59755;43.834;4.364;2022-11-15T01:59:01;11.43;;;7.35;;
71878;SDS011;59755;43.834;4.364;2022-11-15T02:01:31;9.10;;;6.45;;
71878;SDS011;59755;43.834;4.364;2022-11-15T02:03:59;10.93;;;6.45;;
71878;SDS011;59755;43.834;4.364;2022-11-15T02:06:45;10.10;;;6.85;;
71878;SDS011;59755;43.834;4.364;2022-11-15T02:09:13;10.65;;;7.15;;
71878;SDS011;59755;43.834;4.364;2022-11-15T02:11:39;10.93;;;7.30;;
71878;SDS011;59755;43.834;4.364;2022-11-15T02:14:05;12.05;;;6.78;;
71878;SDS011;59755;43.834;4.364;2022-11-15T02:19:08;12.68;;;6.97;;
71878;SDS011;59755;43.834;4.364;2022-11-15T02:24:29;10.02;;;6.35;;
71878;SDS011;59755;43.834;4.364;2022-11-15T02:27:24;9.65;;;6.57;;
71878;SDS011;59755;43.834;4.364;2022-11-15T02:35:47;10.57;;;6.82;;
71878;SDS011;59755;43.834;4.364;2022-11-15T02:38:43;10.27;;;6.53;;
71878;SDS011;59755;43.834;4.364;2022-11-15T02:41:34;9.52;;;6.78;;
71878;SDS011;59755;43.834;4.364;2022-11-15T02:44:13;9.50;;;6.25;;
71878;SDS011;59755;43.834;4.364;2022-11-15T02:46:57;9.63;;;6.05;;
71878;SDS011;59755;43.834;4.364;2022-11-15T02:49:48;11.45;;;6.60;;
71878;SDS011;59755;43.834;4.364;2022-11-15T02:52:19;9.10;;;6.50;;
71878;SDS011;59755;43.834;4.364;2022-11-15T02:54:59;10.05;;;6.25;;
71878;SDS011;59755;43.834;4.364;2022-11-15T03:00:03;9.88;;;5.85;;
71878;SDS011;59755;43.834;4.364;2022-11-15T03:16:37;8.93;;;6.15;;
71878;SDS011;59755;43.834;4.364;2022-11-15T03:21:51;9.20;;;6.00;;
71878;SDS011;59755;43.834;4.364;2022-11-15T03:24:20;9.63;;;6.30;;
71878;SDS011;59755;43.834;4.364;2022-11-15T03:26:47;9.85;;;6.40;;
71878;SDS011;59755;43.834;4.364;2022-11-15T03:29:17;8.60;;;5.55;;
71878;SDS011;59755;43.834;4.364;2022-11-15T03:31:49;8.93;;;6.45;;
71878;SDS011;59755;43.834;4.364;2022-11-15T03:34:22;10.63;;;6.30;;
71878;SDS011;59755;43.834;4.364;2022-11-15T03:36:49;10.35;;;6.65;;
71878;SDS011;59755;43.834;4.364;2022-11-15T03:39:17;9.25;;;5.88;;
71878;SDS011;59755;43.834;4.364;2022-11-15T03:47:29;9.98;;;5.75;;
71878;SDS011;59755;43.834;4.364;2022-11-15T03:50:06;8.68;;;5.57;;
71878;SDS011;59755;43.834;4.364;2022-11-15T03:52:35;8.50;;;5.95;;
71878;SDS011;59755;43.834;4.364;2022-11-15T03:55:03;8.25;;;5.72;;
71878;SDS011;59755;43.834;4.364;2022-11-15T03:57:30;9.45;;;5.68;;
71878;SDS011;59755;43.834;4.364;2022-11-15T03:59:56;8.70;;;5.30;;
71878;SDS011;59755;43.834;4.364;2022-11-15T04:02:21;10.60;;;5.60;;
71878;SDS011;59755;43.834;4.364;2022-11-15T04:04:47;9.68;;;5.68;;
71878;SDS011;59755;43.834;4.364;2022-11-15T04:07:13;9.73;;;5.63;;
71878;SDS011;59755;43.834;4.364;2022-11-15T04:09:39;8.75;;;5.95;;
71878;SDS011;59755;43.834;4.364;2022-11-15T04:12:23;8.50;;;5.35;;
71878;SDS011;59755;43.834;4.364;2022-11-15T04:15:04;8.57;;;5.32;;
71878;SDS011;59755;43.834;4.364;2022-11-15T04:17:44;8.80;;;6.07;;
71878;SDS011;59755;43.834;4.364;2022-11-15T04:20:16;7.85;;;5.38;;
71878;SDS011;59755;43.834;4.364;2022-11-15T04:23:00;8.88;;;5.50;;
71878;SDS011;59755;43.834;4.364;2022-11-15T04:25:47;8.63;;;5.32;;
71878;SDS011;59755;43.834;4.364;2022-11-15T04:28:16;9.23;;;5.55;;
71878;SDS011;59755;43.834;4.364;2022-11-15T04:30:42;8.85;;;5.85;;
71878;SDS011;59755;43.834;4.364;2022-11-15T04:33:07;9.48;;;5.80;;
71878;SDS011;59755;43.834;4.364;2022-11-15T04:35:33;9.65;;;5.22;;
71878;SDS011;59755;43.834;4.364;2022-11-15T04:37:59;10.45;;;5.63;;
71878;SDS011;59755;43.834;4.364;2022-11-15T04:40:25;8.40;;;5.18;;
71878;SDS011;59755;43.834;4.364;2022-11-15T04:42:51;9.65;;;5.25;;
71878;SDS011;59755;43.834;4.364;2022-11-15T04:45:17;8.85;;;5.55;;
71878;SDS011;59755;43.834;4.364;2022-11-15T04:47:43;8.88;;;5.57;;
71878;SDS011;59755;43.834;4.364;2022-11-15T04:50:10;8.43;;;5.10;;
71878;SDS011;59755;43.834;4.364;2022-11-15T04:52:42;8.63;;;5.55;;
71878;SDS011;59755;43.834;4.364;2022-11-15T04:55:14;9.13;;;5.32;;
71878;SDS011;59755;43.834;4.364;2022-11-15T04:57:40;8.60;;;5.80;;
71878;SDS011;59755;43.834;4.364;2022-11-15T05:00:07;9.00;;;5.78;;
71878;SDS011;59755;43.834;4.364;2022-11-15T05:02:35;8.15;;;5.35;;
71878;SDS011;59755;43.834;4.364;2022-11-15T05:05:30;9.93;;;5.80;;
71878;SDS011;59755;43.834;4.364;2022-11-15T05:07:56;8.63;;;5.15;;
71878;SDS011;59755;43.834;4.364;2022-11-15T05:10:21;9.10;;;5.53;;
71878;SDS011;59755;43.834;4.364;2022-11-15T05:12:47;8.75;;;5.88;;
71878;SDS011;59755;43.834;4.364;2022-11-15T05:15:13;9.15;;;5.72;;
71878;SDS011;59755;43.834;4.364;2022-11-15T05:17:39;8.85;;;5.47;;
71878;SDS011;59755;43.834;4.364;2022-11-15T05:20:04;9.63;;;6.13;;
71878;SDS011;59755;43.834;4.364;2022-11-15T05:22:30;9.85;;;5.80;;
71878;SDS011;59755;43.834;4.364;2022-11-15T05:24:56;8.23;;;5.05;;
71878;SDS011;59755;43.834;4.364;2022-11-15T05:27:22;8.07;;;5.25;;
71878;SDS011;59755;43.834;4.364;2022-11-15T05:29:48;9.35;;;5.90;;
71878;SDS011;59755;43.834;4.364;2022-11-15T05:32:13;9.23;;;5.80;;
71878;SDS011;59755;43.834;4.364;2022-11-15T05:34:39;8.63;;;6.00;;
71878;SDS011;59755;43.834;4.364;2022-11-15T05:37:05;10.15;;;6.15;;
71878;SDS011;59755;43.834;4.364;2022-11-15T05:39:31;10.13;;;6.22;;
71878;SDS011;59755;43.834;4.364;2022-11-15T05:42:07;9.63;;;6.00;;
71878;SDS011;59755;43.834;4.364;2022-11-15T05:44:36;10.00;;;6.05;;
71878;SDS011;59755;43.834;4.364;2022-11-15T05:47:04;10.20;;;5.80;;
71878;SDS011;59755;43.834;4.364;2022-11-15T05:49:33;10.98;;;6.38;;
71878;SDS011;59755;43.834;4.364;2022-11-15T05:52:04;10.80;;;6.18;;
71878;SDS011;59755;43.834;4.364;2022-11-15T05:54:32;9.95;;;6.03;;
71878;SDS011;59755;43.834;4.364;2022-11-15T05:56:59;10.23;;;5.93;;
71878;SDS011;59755;43.834;4.364;2022-11-15T05:59:25;9.43;;;5.68;;
71878;SDS011;59755;43.834;4.364;2022-11-15T06:01:53;8.95;;;5.40;;
71878;SDS011;59755;43.834;4.364;2022-11-15T06:04:18;8.70;;;5.60;;
71878;SDS011;59755;43.834;4.364;2022-11-15T06:06:44;8.68;;;5.65;;
71878;SDS011;59755;43.834;4.364;2022-11-15T06:09:10;10.25;;;6.20;;
71878;SDS011;59755;43.834;4.364;2022-11-15T06:11:35;8.63;;;5.55;;
71878;SDS011;59755;43.834;4.364;2022-11-15T06:14:01;8.93;;;5.38;;
71878;SDS011;59755;43.834;4.364;2022-11-15T06:16:27;10.73;;;5.88;;
71878;SDS011;59755;43.834;4.364;2022-11-15T06:18:53;10.57;;;5.43;;
71878;SDS011;59755;43.834;4.364;2022-11-15T06:21:19;9.63;;;6.13;;
71878;SDS011;59755;43.834;4.364;2022-11-15T06:23:44;8.82;;;5.65;;
71878;SDS011;59755;43.834;4.364;2022-11-15T06:26:10;9.13;;;5.63;;
71878;SDS011;59755;43.834;4.364;2022-11-15T06:28:36;9.10;;;5.40;;
71878;SDS011;59755;43.834;4.364;2022-11-15T06:31:05;10.05;;;5.88;;
71878;SDS011;59755;43.834;4.364;2022-11-15T06:33:32;8.85;;;5.28;;
71878;SDS011;59755;43.834;4.364;2022-11-15T06:36:02;9.10;;;5.53;;
71878;SDS011;59755;43.834;4.364;2022-11-15T06:38:29;9.07;;;5.38;;
71878;SDS011;59755;43.834;4.364;2022-11-15T06:40:55;9.07;;;5.78;;
71878;SDS011;59755;43.834;4.364;2022-11-15T06:43:26;9.27;;;5.80;;
71878;SDS011;59755;43.834;4.364;2022-11-15T06:45:51;10.20;;;5.82;;
71878;SDS011;59755;43.834;4.364;2022-11-15T06:48:17;10.15;;;5.93;;
71878;SDS011;59755;43.834;4.364;2022-11-15T06:50:43;12.25;;;5.70;;
71878;SDS011;59755;43.834;4.364;2022-11-15T06:53:16;10.90;;;5.75;;
71878;SDS011;59755;43.834;4.364;2022-11-15T06:55:42;8.68;;;5.32;;
71878;SDS011;59755;43.834;4.364;2022-11-15T06:58:08;8.15;;;5.30;;
71878;SDS011;59755;43.834;4.364;2022-11-15T07:00:34;9.77;;;5.35;;
71878;SDS011;59755;43.834;4.364;2022-11-15T07:03:00;8.93;;;5.03;;
71878;SDS011;59755;43.834;4.364;2022-11-15T07:05:26;9.52;;;5.07;;
71878;SDS011;59755;43.834;4.364;2022-11-15T07:07:52;9.50;;;5.30;;
71878;SDS011;59755;43.834;4.364;2022-11-15T07:10:19;8.90;;;5.82;;
71878;SDS011;59755;43.834;4.364;2022-11-15T07:12:48;11.68;;;5.70;;
71878;SDS011;59755;43.834;4.364;2022-11-15T07:15:15;10.27;;;5.50;;
71878;SDS011;59755;43.834;4.364;2022-11-15T07:17:41;9.57;;;6.20;;
71878;SDS011;59755;43.834;4.364;2022-11-15T07:20:07;9.63;;;5.68;;
71878;SDS011;59755;43.834;4.364;2022-11-15T07:22:33;11.70;;;5.95;;
71878;SDS011;59755;43.834;4.364;2022-11-15T07:24:58;9.00;;;5.18;;
71878;SDS011;59755;43.834;4.364;2022-11-15T07:27:24;11.82;;;5.90;;
71878;SDS011;59755;43.834;4.364;2022-11-15T07:29:50;8.32;;;4.95;;
71878;SDS011;59755;43.834;4.364;2022-11-15T07:32:16;10.13;;;5.32;;
71878;SDS011;59755;43.834;4.364;2022-11-15T07:34:42;9.63;;;4.93;;
71878;SDS011;59755;43.834;4.364;2022-11-15T07:37:07;7.95;;;4.60;;
71878;SDS011;59755;43.834;4.364;2022-11-15T07:39:33;9.65;;;4.70;;
71878;SDS011;59755;43.834;4.364;2022-11-15T07:41:59;10.10;;;4.55;;
71878;SDS011;59755;43.834;4.364;2022-11-15T07:44:43;8.45;;;5.22;;
71878;SDS011;59755;43.834;4.364;2022-11-15T07:47:09;8.30;;;4.53;;
71878;SDS011;59755;43.834;4.364;2022-11-15T07:49:35;9.02;;;4.70;;
71878;SDS011;59755;43.834;4.364;2022-11-15T07:52:00;8.70;;;5.07;;
71878;SDS011;59755;43.834;4.364;2022-11-15T07:54:26;8.40;;;4.10;;
71878;SDS011;59755;43.834;4.364;2022-11-15T07:56:52;8.57;;;4.97;;
71878;SDS011;59755;43.834;4.364;2022-11-15T07:59:17;8.20;;;4.57;;
71878;SDS011;59755;43.834;4.364;2022-11-15T08:01:44;9.10;;;4.75;;
71878;SDS011;59755;43.834;4.364;2022-11-15T08:04:10;7.60;;;4.10;;
71878;SDS011;59755;43.834;4.364;2022-11-15T08:06:36;9.30;;;4.75;;
71878;SDS011;59755;43.834;4.364;2022-11-15T08:09:02;9.43;;;5.07;;
71878;SDS011;59755;43.834;4.364;2022-11-15T08:11:28;8.80;;;5.00;;
71878;SDS011;59755;43.834;4.364;2022-11-15T08:13:54;8.27;;;4.97;;
71878;SDS011;59755;43.834;4.364;2022-11-15T08:16:20;7.78;;;4.38;;
71878;SDS011;59755;43.834;4.364;2022-11-15T08:18:46;8.85;;;4.95;;
71878;SDS011;59755;43.834;4.364;2022-11-15T08:21:12;8.73;;;5.07;;
71878;SDS011;59755;43.834;4.364;2022-11-15T08:23:42;9.87;;;4.87;;
71878;SDS011;59755;43.834;4.364;2022-11-15T08:26:08;8.13;;;4.70;;
71878;SDS011;59755;43.834;4.364;2022-11-15T08:28:34;10.90;;;5.30;;
71878;SDS011;59755;43.834;4.364;2022-11-15T08:31:00;7.63;;;4.43;;
71878;SDS011;59755;43.834;4.364;2022-11-15T08:33:26;8.45;;;5.43;;
71878;SDS011;59755;43.834;4.364;2022-11-15T08:35:55;9.20;;;4.90;;
71878;SDS011;59755;43.834;4.364;2022-11-15T08:38:25;8.88;;;4.68;;
71878;SDS011;59755;43.834;4.364;2022-11-15T08:40:53;9.10;;;5.32;;
71878;SDS011;59755;43.834;4.364;2022-11-15T08:43:24;8.70;;;5.10;;
71878;SDS011;59755;43.834;4.364;2022-11-15T08:45:50;7.72;;;4.68;;
71878;SDS011;59755;43.834;4.364;2022-11-15T08:48:15;8.75;;;4.70;;
71878;SDS011;59755;43.834;4.364;2022-11-15T08:50:41;8.32;;;4.70;;
71878;SDS011;59755;43.834;4.364;2022-11-15T08:53:09;10.35;;;5.45;;
71878;SDS011;59755;43.834;4.364;2022-11-15T08:55:36;9.48;;;5.60;;
71878;SDS011;59755;43.834;4.364;2022-11-15T08:58:03;9.98;;;5.13;;
71878;SDS011;59755;43.834;4.364;2022-11-15T09:00:28;9.75;;;6.03;;
71878;SDS011;59755;43.834;4.364;2022-11-15T09:02:54;13.88;;;6.28;;
71878;SDS011;59755;43.834;4.364;2022-11-15T09:05:20;11.13;;;5.93;;
71878;SDS011;59755;43.834;4.364;2022-11-15T09:07:46;11.35;;;6.03;;
71878;SDS011;59755;43.834;4.364;2022-11-15T09:10:12;9.82;;;5.47;;
71878;SDS011;59755;43.834;4.364;2022-11-15T09:12:38;9.20;;;5.80;;
71878;SDS011;59755;43.834;4.364;2022-11-15T09:15:04;9.70;;;5.55;;
71878;SDS011;59755;43.834;4.364;2022-11-15T09:17:30;8.85;;;5.35;;
71878;SDS011;59755;43.834;4.364;2022-11-15T09:19:56;9.55;;;5.55;;
71878;SDS011;59755;43.834;4.364;2022-11-15T09:22:22;8.52;;;5.43;;
71878;SDS011;59755;43.834;4.364;2022-11-15T09:24:47;8.80;;;5.22;;
71878;SDS011;59755;43.834;4.364;2022-11-15T09:27:13;10.13;;;4.90;;
71878;SDS011;59755;43.834;4.364;2022-11-15T09:29:39;10.18;;;5.53;;
71878;SDS011;59755;43.834;4.364;2022-11-15T09:32:05;9.38;;;5.32;;
71878;SDS011;59755;43.834;4.364;2022-11-15T09:34:30;8.90;;;5.28;;
71878;SDS011;59755;43.834;4.364;2022-11-15T09:36:56;9.60;;;5.63;;
71878;SDS011;59755;43.834;4.364;2022-11-15T09:39:22;11.43;;;5.70;;
71878;SDS011;59755;43.834;4.364;2022-11-15T09:41:50;12.05;;;5.40;;
71878;SDS011;59755;43.834;4.364;2022-11-15T09:50:09;8.77;;;4.97;;
71878;SDS011;59755;43.834;4.364;2022-11-15T09:52:37;9.90;;;5.10;;
71878;SDS011;59755;43.834;4.364;2022-11-15T09:55:08;9.40;;;5.32;;
71878;SDS011;59755;43.834;4.364;2022-11-15T09:57:44;10.68;;;5.95;;
71878;SDS011;59755;43.834;4.364;2022-11-15T10:00:37;12.23;;;5.20;;
71878;SDS011;59755;43.834;4.364;2022-11-15T10:05:44;9.30;;;5.80;;
71878;SDS011;59755;43.834;4.364;2022-11-15T10:11:00;10.45;;;5.38;;
71878;SDS011;59755;43.834;4.364;2022-11-15T10:13:30;11.55;;;5.28;;
71878;SDS011;59755;43.834;4.364;2022-11-15T10:16:24;10.60;;;6.10;;
71878;SDS011;59755;43.834;4.364;2022-11-15T10:24:26;11.32;;;8.30;;
71878;SDS011;59755;43.834;4.364;2022-11-15T10:26:54;10.18;;;7.20;;
71878;SDS011;59755;43.834;4.364;2022-11-15T10:29:20;10.63;;;7.10;;
71878;SDS011;59755;43.834;4.364;2022-11-15T10:31:47;11.10;;;7.43;;
71878;SDS011;59755;43.834;4.364;2022-11-15T10:36:55;11.73;;;7.65;;
71878;SDS011;59755;43.834;4.364;2022-11-15T10:39:23;10.43;;;7.00;;
71878;SDS011;59755;43.834;4.364;2022-11-15T10:41:49;13.13;;;7.35;;
71878;SDS011;59755;43.834;4.364;2022-11-15T10:46:42;11.70;;;7.45;;
71878;SDS011;59755;43.834;4.364;2022-11-15T10:51:43;13.10;;;7.43;;
71878;SDS011;59755;43.834;4.364;2022-11-15T10:54:12;12.15;;;6.53;;
71878;SDS011;59755;43.834;4.364;2022-11-15T10:56:58;11.60;;;7.55;;
71878;SDS011;59755;43.834;4.364;2022-11-15T10:59:30;11.80;;;8.00;;
71878;SDS011;59755;43.834;4.364;2022-11-15T11:01:58;17.63;;;9.77;;
71878;SDS011;59755;43.834;4.364;2022-11-15T11:04:25;12.68;;;7.78;;
71878;SDS011;59755;43.834;4.364;2022-11-15T11:06:52;13.60;;;8.65;;
71878;SDS011;59755;43.834;4.364;2022-11-15T11:11:59;20.00;;;14.98;;
71878;SDS011;59755;43.834;4.364;2022-11-15T11:14:29;22.77;;;18.98;;
71878;SDS011;59755;43.834;4.364;2022-11-15T11:22:40;16.58;;;12.38;;
71878;SDS011;59755;43.834;4.364;2022-11-15T11:31:18;17.13;;;11.15;;
71878;SDS011;59755;43.834;4.364;2022-11-15T11:39:46;24.55;;;19.58;;
71878;SDS011;59755;43.834;4.364;2022-11-15T11:50:29;16.27;;;11.13;;
71878;SDS011;59755;43.834;4.364;2022-11-15T11:52:59;15.73;;;11.45;;
71878;SDS011;59755;43.834;4.364;2022-11-15T11:56:03;10.75;;;7.82;;
71878;SDS011;59755;43.834;4.364;2022-11-15T11:58:38;13.82;;;8.75;;
71878;SDS011;59755;43.834;4.364;2022-11-15T12:03:39;14.10;;;8.50;;
71878;SDS011;59755;43.834;4.364;2022-11-15T12:06:26;13.02;;;8.55;;
71878;SDS011;59755;43.834;4.364;2022-11-15T12:09:05;13.63;;;8.05;;
71878;SDS011;59755;43.834;4.364;2022-11-15T12:11:43;13.55;;;9.07;;
71878;SDS011;59755;43.834;4.364;2022-11-15T12:14:22;13.48;;;9.10;;
71878;SDS011;59755;43.834;4.364;2022-11-15T12:16:56;12.82;;;8.57;;
71878;SDS011;59755;43.834;4.364;2022-11-15T12:19:23;10.27;;;7.20;;
71878;SDS011;59755;43.834;4.364;2022-11-15T12:24:28;11.75;;;6.70;;
71878;SDS011;59755;43.834;4.364;2022-11-15T12:27:17;10.25;;;5.78;;
71878;SDS011;59755;43.834;4.364;2022-11-15T12:30:00;11.88;;;6.72;;
71878;SDS011;59755;43.834;4.364;2022-11-15T12:32:41;11.95;;;6.45;;
71878;SDS011;59755;43.834;4.364;2022-11-15T12:35:24;10.13;;;6.00;;
71878;SDS011;59755;43.834;4.364;2022-11-15T12:37:56;10.05;;;6.07;;
71878;SDS011;59755;43.834;4.364;2022-11-15T12:40:26;10.93;;;6.13;;
71878;SDS011;59755;43.834;4.364;2022-11-15T12:45:38;11.50;;;5.72;;
71878;SDS011;59755;43.834;4.364;2022-11-15T12:48:52;10.80;;;6.13;;
71878;SDS011;59755;43.834;4.364;2022-11-15T12:51:00;10.25;;;5.75;;
71878;SDS011;59755;43.834;4.364;2022-11-15T12:53:27;12.15;;;5.85;;
71878;SDS011;59755;43.834;4.364;2022-11-15T12:58:45;10.05;;;5.82;;
71878;SDS011;59755;43.834;4.364;2022-11-15T13:01:54;9.25;;;5.95;;
71878;SDS011;59755;43.834;4.364;2022-11-15T13:11:54;11.70;;;5.95;;
71878;SDS011;59755;43.834;4.364;2022-11-15T13:17:24;10.63;;;5.43;;
71878;SDS011;59755;43.834;4.364;2022-11-15T13:23:21;11.07;;;5.57;;
71878;SDS011;59755;43.834;4.364;2022-11-15T13:34:24;10.27;;;5.65;;
71878;SDS011;59755;43.834;4.364;2022-11-15T13:36:53;10.35;;;5.95;;
71878;SDS011;59755;43.834;4.364;2022-11-15T13:39:26;9.13;;;6.15;;
71878;SDS011;59755;43.834;4.364;2022-11-15T13:41:52;11.05;;;6.63;;
71878;SDS011;59755;43.834;4.364;2022-11-15T13:44:19;11.93;;;6.53;;
71878;SDS011;59755;43.834;4.364;2022-11-15T13:46:46;10.88;;;6.60;;
71878;SDS011;59755;43.834;4.364;2022-11-15T13:49:12;12.02;;;6.80;;
71878;SDS011;59755;43.834;4.364;2022-11-15T13:56:44;15.13;;;6.57;;
71878;SDS011;59755;43.834;4.364;2022-11-15T13:59:31;11.60;;;6.18;;
71878;SDS011;59755;43.834;4.364;2022-11-15T14:02:10;9.38;;;5.88;;
71878;SDS011;59755;43.834;4.364;2022-11-15T14:04:46;11.27;;;6.75;;
71878;SDS011;59755;43.834;4.364;2022-11-15T14:07:24;11.57;;;6.70;;
71878;SDS011;59755;43.834;4.364;2022-11-15T14:09:51;13.15;;;7.50;;
71878;SDS011;59755;43.834;4.364;2022-11-15T14:12:28;14.38;;;8.68;;
71878;SDS011;59755;43.834;4.364;2022-11-15T14:14:59;13.88;;;8.45;;
71878;SDS011;59755;43.834;4.364;2022-11-15T14:19:56;14.02;;;8.18;;
71878;SDS011;59755;43.834;4.364;2022-11-15T14:22:26;12.02;;;8.10;;
71878;SDS011;59755;43.834;4.364;2022-11-15T14:27:38;12.85;;;8.25;;
71878;SDS011;59755;43.834;4.364;2022-11-15T14:30:05;13.73;;;8.90;;
71878;SDS011;59755;43.834;4.364;2022-11-15T14:32:47;13.38;;;8.43;;
71878;SDS011;59755;43.834;4.364;2022-11-15T14:35:15;14.95;;;8.20;;
71878;SDS011;59755;43.834;4.364;2022-11-15T14:37:43;12.55;;;7.85;;
71878;SDS011;59755;43.834;4.364;2022-11-15T14:40:12;15.95;;;7.95;;
71878;SDS011;59755;43.834;4.364;2022-11-15T14:42:39;12.85;;;7.47;;
71878;SDS011;59755;43.834;4.364;2022-11-15T14:45:13;13.48;;;7.60;;
71878;SDS011;59755;43.834;4.364;2022-11-15T14:47:41;14.27;;;8.50;;
71878;SDS011;59755;43.834;4.364;2022-11-15T14:50:14;12.02;;;7.70;;
71878;SDS011;59755;43.834;4.364;2022-11-15T14:52:45;14.88;;;8.48;;
71878;SDS011;59755;43.834;4.364;2022-11-15T14:57:43;15.18;;;8.40;;
71878;SDS011;59755;43.834;4.364;2022-11-15T15:00:09;13.73;;;7.50;;
71878;SDS011;59755;43.834;4.364;2022-11-15T15:02:35;15.38;;;7.88;;
71878;SDS011;59755;43.834;4.364;2022-11-15T15:05:06;11.68;;;6.82;;
71878;SDS011;59755;43.834;4.364;2022-11-15T15:07:48;12.63;;;6.90;;
71878;SDS011;59755;43.834;4.364;2022-11-15T15:10:15;10.30;;;6.68;;
71878;SDS011;59755;43.834;4.364;2022-11-15T15:12:41;14.73;;;7.18;;
71878;SDS011;59755;43.834;4.364;2022-11-15T15:15:14;10.75;;;6.72;;
71878;SDS011;59755;43.834;4.364;2022-11-15T15:17:42;10.18;;;6.65;;
71878;SDS011;59755;43.834;4.364;2022-11-15T15:20:08;10.55;;;7.05;;
71878;SDS011;59755;43.834;4.364;2022-11-15T15:22:35;10.85;;;6.60;;
71878;SDS011;59755;43.834;4.364;2022-11-15T15:25:02;13.85;;;7.32;;
71878;SDS011;59755;43.834;4.364;2022-11-15T15:27:29;12.98;;;6.63;;
71878;SDS011;59755;43.834;4.364;2022-11-15T15:29:55;11.75;;;6.53;;
71878;SDS011;59755;43.834;4.364;2022-11-15T15:32:20;10.68;;;6.75;;
71878;SDS011;59755;43.834;4.364;2022-11-15T15:34:46;13.75;;;6.90;;
71878;SDS011;59755;43.834;4.364;2022-11-15T15:37:24;12.63;;;7.45;;
71878;SDS011;59755;43.834;4.364;2022-11-15T15:39:51;11.48;;;7.10;;
71878;SDS011;59755;43.834;4.364;2022-11-15T15:42:18;12.40;;;7.50;;
71878;SDS011;59755;43.834;4.364;2022-11-15T15:44:45;11.57;;;7.70;;
71878;SDS011;59755;43.834;4.364;2022-11-15T15:47:12;13.90;;;7.75;;
71878;SDS011;59755;43.834;4.364;2022-11-15T15:49:41;12.00;;;7.53;;
71878;SDS011;59755;43.834;4.364;2022-11-15T15:52:06;10.00;;;6.15;;
71878;SDS011;59755;43.834;4.364;2022-11-15T15:54:32;11.65;;;7.07;;
71878;SDS011;59755;43.834;4.364;2022-11-15T15:56:58;15.35;;;8.15;;
71878;SDS011;59755;43.834;4.364;2022-11-15T15:59:24;16.35;;;10.25;;
71878;SDS011;59755;43.834;4.364;2022-11-15T16:01:49;14.60;;;9.70;;
71878;SDS011;59755;43.834;4.364;2022-11-15T16:04:15;16.80;;;11.57;;
71878;SDS011;59755;43.834;4.364;2022-11-15T16:06:41;16.65;;;11.85;;
71878;SDS011;59755;43.834;4.364;2022-11-15T16:09:16;17.83;;;12.63;;
71878;SDS011;59755;43.834;4.364;2022-11-15T16:11:45;16.55;;;9.68;;
71878;SDS011;59755;43.834;4.364;2022-11-15T16:14:12;12.50;;;8.40;;
71878;SDS011;59755;43.834;4.364;2022-11-15T16:16:37;14.27;;;8.75;;
71878;SDS011;59755;43.834;4.364;2022-11-15T16:19:04;11.38;;;7.70;;
71878;SDS011;59755;43.834;4.364;2022-11-15T16:21:29;12.63;;;7.38;;
71878;SDS011;59755;43.834;4.364;2022-11-15T16:23:55;11.07;;;6.63;;
71878;SDS011;59755;43.834;4.364;2022-11-15T16:26:23;13.60;;;6.85;;
71878;SDS011;59755;43.834;4.364;2022-11-15T16:28:51;10.40;;;6.78;;
71878;SDS011;59755;43.834;4.364;2022-11-15T16:31:17;11.85;;;6.85;;
71878;SDS011;59755;43.834;4.364;2022-11-15T16:33:46;10.00;;;6.60;;
71878;SDS011;59755;43.834;4.364;2022-11-15T16:36:21;11.38;;;6.80;;
71878;SDS011;59755;43.834;4.364;2022-11-15T16:38:49;9.80;;;6.85;;
71878;SDS011;59755;43.834;4.364;2022-11-15T16:41:15;11.55;;;6.60;;
71878;SDS011;59755;43.834;4.364;2022-11-15T16:43:45;12.98;;;6.85;;
71878;SDS011;59755;43.834;4.364;2022-11-15T16:46:20;11.55;;;6.70;;
71878;SDS011;59755;43.834;4.364;2022-11-15T16:48:48;11.90;;;7.05;;
71878;SDS011;59755;43.834;4.364;2022-11-15T16:51:14;12.02;;;7.15;;
71878;SDS011;59755;43.834;4.364;2022-11-15T16:53:41;10.48;;;6.47;;
71878;SDS011;59755;43.834;4.364;2022-11-15T16:56:23;9.98;;;6.63;;
71878;SDS011;59755;43.834;4.364;2022-11-15T16:58:51;12.63;;;8.07;;
71878;SDS011;59755;43.834;4.364;2022-11-15T17:01:29;13.77;;;7.75;;
71878;SDS011;59755;43.834;4.364;2022-11-15T17:03:56;14.75;;;8.52;;
71878;SDS011;59755;43.834;4.364;2022-11-15T17:06:23;12.10;;;6.95;;
71878;SDS011;59755;43.834;4.364;2022-11-15T17:08:49;12.50;;;8.13;;